Time;durP1;ratioP1;P1;durP2;ratioP2;P2;SDS_P1;SDS_P2;PMS_P1;PMS_P2;Temp;Humidity;BMP_temperature;BMP_pressure;BME280_temperature;BME280_humidity;BME280_pressure;Samples;Min_cycle;Max_cycle;Signal;HPM_P1;HPM_P2
2022/01/31 00:01:03;;;;;;;26.30;12.35;;;;;;;;;;5009139;28;20050;-69
2022/01/31 00:03:34;;;;;;;20.40;11.43;;;;;;;;;;5006379;28;20550;-71
2022/01/31 00:06:01;;;;;;;22.20;11.98;;;;;;;;;;5003321;28;20623;-68
2022/01/31 00:08:28;;;;;;;20.27;11.20;;;;;;;;;;5013517;28;20064;-80
2022/01/31 00:10:55;;;;;;;18.00;10.82;;;;;;;;;;5020785;28;20054;-81
2022/01/31 00:16:24;;;;;;;19.20;12.30;;;;;;;;;;4988155;28;20144;-83
2022/01/31 00:18:50;;;;;;;25.52;11.80;;;;;;;;;;5018681;28;20052;-81
2022/01/31 00:21:16;;;;;;;17.45;10.32;;;;;;;;;;5005483;28;20049;-76
2022/01/31 00:23:43;;;;;;;21.02;11.35;;;;;;;;;;5023277;28;20052;-79
2022/01/31 00:26:08;;;;;;;18.17;11.00;;;;;;;;;;5003659;28;20049;-81
2022/01/31 00:28:35;;;;;;;19.38;11.95;;;;;;;;;;4983391;28;20068;-71
2022/01/31 00:31:01;;;;;;;20.48;11.90;;;;;;;;;;5004429;28;20056;-79
2022/01/31 00:33:28;;;;;;;25.42;12.55;;;;;;;;;;5005592;28;20057;-70
2022/01/31 00:35:54;;;;;;;20.63;12.45;;;;;;;;;;5022271;28;20160;-66
2022/01/31 00:38:21;;;;;;;20.83;12.93;;;;;;;;;;5021090;28;20421;-79
2022/01/31 00:40:47;;;;;;;24.30;12.80;;;;;;;;;;5024799;28;20064;-78
2022/01/31 00:43:15;;;;;;;27.85;14.25;;;;;;;;;;5026542;28;20923;-77
2022/01/31 00:46:10;;;;;;;27.90;15.10;;;;;;;;;;5005550;28;20060;-81
2022/01/31 00:48:33;;;;;;;26.70;12.48;;;;;;;;;;5018272;28;20049;-70
2022/01/31 00:51:01;;;;;;;22.67;11.38;;;;;;;;;;5019107;28;20045;-67
2022/01/31 00:53:27;;;;;;;18.52;11.30;;;;;;;;;;5021976;28;20053;-65
2022/01/31 00:55:53;;;;;;;19.17;10.40;;;;;;;;;;5019150;28;20053;-76
2022/01/31 00:58:19;;;;;;;16.90;9.57;;;;;;;;;;5001636;28;20080;-87
2022/01/31 01:00:45;;;;;;;15.75;9.45;;;;;;;;;;5015822;28;20538;-74
2022/01/31 01:03:12;;;;;;;18.10;8.25;;;;;;;;;;5018295;28;20067;-80
2022/01/31 01:05:38;;;;;;;17.25;9.25;;;;;;;;;;5002375;28;20417;-78
2022/01/31 01:08:04;;;;;;;12.38;7.85;;;;;;;;;;5001608;28;21002;-68
2022/01/31 01:10:31;;;;;;;13.70;7.65;;;;;;;;;;5013556;28;20575;-76
2022/01/31 01:12:58;;;;;;;12.43;7.35;;;;;;;;;;5016469;28;20683;-78
2022/01/31 01:15:24;;;;;;;13.20;7.90;;;;;;;;;;5005578;28;20055;-67
2022/01/31 01:17:50;;;;;;;15.88;8.00;;;;;;;;;;5015442;28;20132;-74
2022/01/31 01:20:17;;;;;;;12.70;7.60;;;;;;;;;;4995968;28;20057;-81
2022/01/31 01:22:44;;;;;;;13.35;7.00;;;;;;;;;;4997625;28;20045;-83
2022/01/31 01:25:13;;;;;;;12.50;7.13;;;;;;;;;;4998695;28;20781;-84
2022/01/31 01:27:41;;;;;;;15.40;6.85;;;;;;;;;;4997589;28;20079;-78
2022/01/31 01:30:10;;;;;;;10.77;6.10;;;;;;;;;;5012459;28;20052;-79
2022/01/31 01:32:46;;;;;;;10.45;6.35;;;;;;;;;;4980313;28;20204;-77
2022/01/31 01:35:12;;;;;;;11.55;5.88;;;;;;;;;;5014815;28;20046;-76
2022/01/31 01:37:38;;;;;;;11.65;5.65;;;;;;;;;;5012864;28;20129;-80
2022/01/31 01:40:05;;;;;;;11.68;5.20;;;;;;;;;;5011590;28;20049;-75
2022/01/31 01:42:33;;;;;;;12.02;5.18;;;;;;;;;;5012926;28;20155;-66
2022/01/31 01:45:00;;;;;;;10.30;6.18;;;;;;;;;;4995812;28;20091;-71
2022/01/31 01:47:26;;;;;;;9.10;6.05;;;;;;;;;;5015437;28;20569;-70
2022/01/31 01:49:53;;;;;;;12.25;6.60;;;;;;;;;;5011452;28;20460;-75
2022/01/31 01:52:20;;;;;;;12.85;5.88;;;;;;;;;;5019944;28;20131;-81
2022/01/31 01:54:47;;;;;;;10.25;6.00;;;;;;;;;;5014847;28;20466;-73
2022/01/31 01:57:13;;;;;;;12.85;6.20;;;;;;;;;;4998291;28;20049;-82
2022/01/31 01:59:41;;;;;;;11.50;6.22;;;;;;;;;;5011700;28;20777;-83
2022/01/31 02:02:07;;;;;;;10.00;6.15;;;;;;;;;;5014158;28;20456;-76
2022/01/31 02:04:35;;;;;;;9.80;5.90;;;;;;;;;;5015115;28;20049;-71
2022/01/31 02:07:02;;;;;;;10.27;5.55;;;;;;;;;;5011674;28;20075;-66
2022/01/31 02:09:31;;;;;;;11.43;5.57;;;;;;;;;;4992141;28;20053;-83
2022/01/31 02:11:57;;;;;;;11.68;5.10;;;;;;;;;;5014917;28;20058;-76
2022/01/31 02:14:24;;;;;;;10.07;5.10;;;;;;;;;;4994150;28;20064;-71
2022/01/31 02:16:51;;;;;;;8.07;5.10;;;;;;;;;;4994724;28;20037;-77
2022/01/31 02:19:18;;;;;;;8.57;4.75;;;;;;;;;;5009927;28;20081;-83
2022/01/31 02:21:49;;;;;;;10.32;4.82;;;;;;;;;;4996365;28;20045;-83
2022/01/31 02:24:15;;;;;;;8.15;5.07;;;;;;;;;;4994765;28;20415;-75
2022/01/31 02:26:41;;;;;;;9.05;4.97;;;;;;;;;;4980125;28;20054;-78
2022/01/31 02:29:11;;;;;;;8.65;4.57;;;;;;;;;;5011041;28;20547;-86
2022/01/31 02:31:43;;;;;;;9.80;5.05;;;;;;;;;;4997346;28;20176;-73
2022/01/31 02:34:09;;;;;;;8.43;4.57;;;;;;;;;;4994225;28;20407;-72
2022/01/31 02:36:36;;;;;;;11.43;4.60;;;;;;;;;;4999049;28;20205;-78
2022/01/31 02:39:04;;;;;;;7.20;4.50;;;;;;;;;;5014084;28;20606;-74
2022/01/31 02:41:31;;;;;;;9.77;4.45;;;;;;;;;;5018257;28;20582;-70
2022/01/31 02:43:59;;;;;;;12.88;4.45;;;;;;;;;;5016740;28;20227;-67
2022/01/31 02:46:27;;;;;;;9.20;4.32;;;;;;;;;;5007498;28;20092;-68
2022/01/31 02:48:56;;;;;;;7.53;4.00;;;;;;;;;;5012952;28;20078;-78
2022/01/31 02:51:24;;;;;;;18.20;4.47;;;;;;;;;;4998995;28;20045;-66
2022/01/31 02:53:51;;;;;;;9.32;3.90;;;;;;;;;;5019050;28;20076;-80
2022/01/31 02:56:18;;;;;;;8.18;4.13;;;;;;;;;;5019465;28;20053;-74
2022/01/31 02:58:44;;;;;;;8.50;3.72;;;;;;;;;;4997328;28;20052;-71
2022/01/31 03:01:12;;;;;;;7.20;3.55;;;;;;;;;;5019547;28;20053;-79
2022/01/31 03:03:38;;;;;;;6.03;3.42;;;;;;;;;;5002494;28;20407;-81
2022/01/31 03:06:04;;;;;;;6.07;3.40;;;;;;;;;;5017585;28;20205;-76
2022/01/31 03:08:32;;;;;;;8.50;3.45;;;;;;;;;;5016139;28;20109;-75
2022/01/31 03:10:59;;;;;;;10.88;3.75;;;;;;;;;;4999222;28;20076;-69
2022/01/31 03:13:24;;;;;;;17.63;3.97;;;;;;;;;;5013939;28;20069;-67
2022/01/31 03:15:52;;;;;;;10.80;4.13;;;;;;;;;;4994741;28;20143;-84
2022/01/31 03:18:18;;;;;;;7.68;3.88;;;;;;;;;;5016736;28;20619;-87
2022/01/31 03:20:44;;;;;;;11.73;4.03;;;;;;;;;;5016049;28;20139;-75
2022/01/31 03:23:11;;;;;;;11.48;3.72;;;;;;;;;;5018606;28;20045;-77
2022/01/31 03:25:38;;;;;;;7.78;3.17;;;;;;;;;;5018492;28;20161;-80
2022/01/31 03:28:04;;;;;;;8.20;3.45;;;;;;;;;;5012331;28;20053;-74
2022/01/31 03:30:31;;;;;;;10.95;4.03;;;;;;;;;;5011044;28;20389;-77
2022/01/31 03:32:57;;;;;;;8.60;3.47;;;;;;;;;;4980813;28;20271;-68
2022/01/31 03:35:24;;;;;;;8.82;3.65;;;;;;;;;;5013010;28;20141;-67
2022/01/31 03:37:50;;;;;;;6.78;3.25;;;;;;;;;;4997026;28;20071;-81
2022/01/31 03:40:17;;;;;;;5.15;2.33;;;;;;;;;;5015636;28;20053;-74
2022/01/31 03:42:43;;;;;;;6.25;2.40;;;;;;;;;;5018519;28;20052;-75
2022/01/31 03:45:11;;;;;;;6.07;2.67;;;;;;;;;;5019469;28;20646;-73
2022/01/31 03:47:44;;;;;;;6.53;2.25;;;;;;;;;;5015603;28;20235;-71
2022/01/31 03:50:15;;;;;;;5.15;2.55;;;;;;;;;;5004351;28;20053;-79
2022/01/31 03:52:42;;;;;;;6.03;2.58;;;;;;;;;;5018524;28;20064;-80
2022/01/31 03:55:15;;;;;;;3.75;2.45;;;;;;;;;;4996276;28;20106;-79
2022/01/31 03:57:41;;;;;;;7.85;2.42;;;;;;;;;;5015050;28;20124;-78
2022/01/31 04:00:11;;;;;;;6.35;2.80;;;;;;;;;;5000960;28;20080;-79
2022/01/31 04:02:37;;;;;;;4.88;2.58;;;;;;;;;;4996163;28;20963;-69
2022/01/31 04:05:04;;;;;;;5.22;2.10;;;;;;;;;;5014375;28;20254;-70
2022/01/31 04:07:30;;;;;;;5.93;2.40;;;;;;;;;;5013722;28;20097;-71
2022/01/31 04:09:57;;;;;;;5.88;2.50;;;;;;;;;;4991806;28;20385;-70
2022/01/31 04:12:24;;;;;;;5.03;2.35;;;;;;;;;;4981814;28;20590;-71
2022/01/31 04:14:50;;;;;;;6.78;2.40;;;;;;;;;;4995951;28;20445;-80
2022/01/31 04:17:19;;;;;;;7.82;2.35;;;;;;;;;;5012907;28;20103;-77
2022/01/31 04:19:47;;;;;;;6.72;2.13;;;;;;;;;;5012793;28;20049;-81
2022/01/31 04:22:18;;;;;;;5.85;2.60;;;;;;;;;;4996061;28;20052;-82
2022/01/31 04:24:47;;;;;;;4.43;2.40;;;;;;;;;;5018077;28;20049;-83
2022/01/31 04:27:18;;;;;;;5.32;2.35;;;;;;;;;;5018635;28;20053;-82
2022/01/31 04:29:46;;;;;;;4.95;2.38;;;;;;;;;;5010451;28;20048;-84
2022/01/31 04:32:12;;;;;;;4.93;2.38;;;;;;;;;;4982095;28;20064;-81
2022/01/31 04:34:40;;;;;;;6.65;2.30;;;;;;;;;;4992454;28;20049;-81
2022/01/31 04:37:07;;;;;;;9.32;2.50;;;;;;;;;;4990422;28;20049;-74
2022/01/31 04:39:33;;;;;;;4.40;2.65;;;;;;;;;;4970196;28;20060;-74
2022/01/31 04:41:59;;;;;;;5.90;2.55;;;;;;;;;;4979053;28;20054;-80
2022/01/31 04:44:26;;;;;;;10.65;2.42;;;;;;;;;;4975620;28;20057;-65
2022/01/31 04:46:52;;;;;;;7.20;2.42;;;;;;;;;;4977726;28;20506;-69
2022/01/31 04:49:19;;;;;;;4.20;2.58;;;;;;;;;;4988278;28;20052;-76
2022/01/31 04:51:46;;;;;;;7.53;2.75;;;;;;;;;;4995171;28;20046;-78
2022/01/31 04:54:12;;;;;;;4.95;2.50;;;;;;;;;;4995214;28;20208;-79
2022/01/31 04:56:41;;;;;;;6.55;3.00;;;;;;;;;;4976803;28;20725;-76
2022/01/31 04:59:08;;;;;;;7.35;2.40;;;;;;;;;;4990295;28;20068;-75
2022/01/31 05:01:38;;;;;;;5.60;2.60;;;;;;;;;;4994107;28;20093;-72
2022/01/31 05:04:04;;;;;;;5.45;2.15;;;;;;;;;;4974877;28;20050;-66
2022/01/31 05:06:35;;;;;;;4.30;2.30;;;;;;;;;;4991192;28;20054;-66
2022/01/31 05:09:02;;;;;;;4.30;2.45;;;;;;;;;;4990330;28;20061;-65
2022/01/31 05:11:28;;;;;;;12.27;3.58;;;;;;;;;;4994105;28;20469;-67
2022/01/31 05:13:54;;;;;;;14.50;3.38;;;;;;;;;;4991925;28;20114;-77
2022/01/31 05:16:22;;;;;;;8.75;3.80;;;;;;;;;;4994361;28;20073;-76
2022/01/31 05:18:49;;;;;;;8.98;3.33;;;;;;;;;;4989105;28;20153;-78
2022/01/31 05:21:15;;;;;;;8.88;4.15;;;;;;;;;;4976453;28;20163;-76
2022/01/31 05:23:41;;;;;;;6.47;3.55;;;;;;;;;;4969923;28;20391;-73
2022/01/31 05:26:07;;;;;;;10.57;3.17;;;;;;;;;;4977622;28;20620;-66
2022/01/31 05:28:34;;;;;;;6.72;3.40;;;;;;;;;;4974019;28;20127;-81
2022/01/31 05:31:00;;;;;;;5.45;2.97;;;;;;;;;;4985060;28;20049;-65
2022/01/31 05:33:27;;;;;;;8.77;4.03;;;;;;;;;;4993107;28;20063;-66
2022/01/31 05:35:55;;;;;;;8.32;3.45;;;;;;;;;;5014058;28;20142;-81
2022/01/31 05:38:21;;;;;;;5.88;2.90;;;;;;;;;;4994783;28;20125;-81
2022/01/31 05:40:47;;;;;;;7.80;2.97;;;;;;;;;;4996861;28;20049;-74
2022/01/31 05:43:13;;;;;;;14.70;3.20;;;;;;;;;;4998694;28;20417;-74
2022/01/31 05:45:39;;;;;;;7.70;3.28;;;;;;;;;;4999704;28;20531;-78
2022/01/31 05:48:06;;;;;;;12.60;2.88;;;;;;;;;;5014446;28;20893;-78
2022/01/31 05:50:32;;;;;;;10.70;3.08;;;;;;;;;;4996498;28;20048;-69
2022/01/31 05:52:59;;;;;;;7.75;2.67;;;;;;;;;;5014703;28;20048;-66
2022/01/31 05:55:25;;;;;;;11.05;2.88;;;;;;;;;;5014588;28;20055;-68
2022/01/31 05:57:52;;;;;;;6.93;2.85;;;;;;;;;;5012993;28;20059;-80
2022/01/31 06:00:18;;;;;;;8.95;2.92;;;;;;;;;;5008391;28;20461;-82
2022/01/31 06:02:49;;;;;;;10.32;2.70;;;;;;;;;;5036038;28;20041;-83
2022/01/31 06:05:15;;;;;;;7.60;2.60;;;;;;;;;;5015280;28;20866;-75
2022/01/31 06:07:41;;;;;;;10.10;3.03;;;;;;;;;;4997566;28;20598;-77
2022/01/31 06:10:08;;;;;;;8.15;3.15;;;;;;;;;;4999655;28;20338;-82
2022/01/31 06:12:37;;;;;;;7.25;3.03;;;;;;;;;;5011133;28;20053;-70
2022/01/31 06:15:05;;;;;;;8.27;2.35;;;;;;;;;;5020469;28;20053;-76
2022/01/31 06:17:31;;;;;;;5.88;2.30;;;;;;;;;;5016279;28;20057;-79
2022/01/31 06:19:57;;;;;;;5.22;2.47;;;;;;;;;;5015790;28;20057;-70
2022/01/31 06:22:23;;;;;;;5.10;2.30;;;;;;;;;;5002123;28;20053;-67
2022/01/31 06:24:49;;;;;;;6.88;2.55;;;;;;;;;;5003660;28;20041;-82
2022/01/31 06:27:16;;;;;;;7.05;2.63;;;;;;;;;;5017480;28;20047;-82
2022/01/31 06:29:46;;;;;;;9.23;2.97;;;;;;;;;;4998304;28;20044;-73
2022/01/31 06:32:13;;;;;;;5.55;2.40;;;;;;;;;;5008183;28;20052;-78
2022/01/31 06:34:41;;;;;;;8.73;2.78;;;;;;;;;;5001747;28;21236;-70
2022/01/31 06:37:07;;;;;;;10.88;3.08;;;;;;;;;;5024010;28;20048;-72
2022/01/31 06:39:34;;;;;;;11.13;4.00;;;;;;;;;;4998593;28;20056;-69
2022/01/31 06:42:00;;;;;;;8.35;3.10;;;;;;;;;;5002697;28;20655;-75
2022/01/31 06:44:26;;;;;;;8.45;3.50;;;;;;;;;;5005037;28;20076;-70
2022/01/31 06:46:52;;;;;;;9.73;3.00;;;;;;;;;;5002638;28;20057;-82
2022/01/31 06:49:19;;;;;;;11.35;3.15;;;;;;;;;;4996899;28;20056;-74
2022/01/31 06:51:45;;;;;;;8.68;2.88;;;;;;;;;;4997358;28;20496;-72
2022/01/31 06:54:11;;;;;;;10.57;2.47;;;;;;;;;;4997092;28;20057;-78
2022/01/31 06:56:40;;;;;;;9.07;2.90;;;;;;;;;;5013672;28;20049;-71
2022/01/31 06:59:09;;;;;;;7.32;2.17;;;;;;;;;;5008267;28;20161;-69
2022/01/31 07:01:35;;;;;;;8.73;2.60;;;;;;;;;;4986129;28;20050;-69
2022/01/31 07:04:02;;;;;;;5.43;2.40;;;;;;;;;;5014221;28;20067;-72
2022/01/31 07:06:29;;;;;;;11.55;2.58;;;;;;;;;;5010846;28;20068;-74
2022/01/31 07:08:58;;;;;;;17.35;3.20;;;;;;;;;;4993125;28;20057;-76
2022/01/31 07:11:28;;;;;;;12.55;3.72;;;;;;;;;;4994044;28;20057;-75
2022/01/31 07:14:07;;;;;;;18.75;3.90;;;;;;;;;;5015017;28;20050;-75
2022/01/31 07:16:34;;;;;;;13.43;4.03;;;;;;;;;;4996018;28;20457;-69
2022/01/31 07:19:07;;;;;;;12.68;3.63;;;;;;;;;;4995359;28;20072;-80
2022/01/31 07:21:38;;;;;;;7.47;3.45;;;;;;;;;;4986064;28;20462;-75
2022/01/31 07:26:35;;;;;;;15.43;4.53;;;;;;;;;;5024199;28;20052;-73
2022/01/31 07:29:01;;;;;;;12.93;4.55;;;;;;;;;;5005422;28;20048;-73
2022/01/31 07:31:28;;;;;;;13.00;5.32;;;;;;;;;;5008383;28;20185;-77
2022/01/31 07:33:54;;;;;;;20.50;5.10;;;;;;;;;;4999001;28;20507;-82
2022/01/31 07:36:22;;;;;;;13.45;5.88;;;;;;;;;;5014172;28;20391;-75
2022/01/31 07:38:48;;;;;;;20.10;5.65;;;;;;;;;;5028318;28;20057;-75
2022/01/31 07:41:14;;;;;;;15.35;4.93;;;;;;;;;;5010912;28;20046;-78
2022/01/31 07:43:43;;;;;;;11.45;4.40;;;;;;;;;;5009058;28;20894;-83
2022/01/31 07:46:14;;;;;;;17.55;4.97;;;;;;;;;;5007389;28;20515;-73
2022/01/31 07:48:41;;;;;;;21.38;3.90;;;;;;;;;;4998409;28;20498;-81
2022/01/31 07:51:11;;;;;;;12.15;3.70;;;;;;;;;;4999297;28;20073;-66
2022/01/31 07:53:38;;;;;;;13.23;3.78;;;;;;;;;;5018416;28;20140;-68
2022/01/31 07:56:08;;;;;;;11.60;3.60;;;;;;;;;;5001160;28;20049;-66
2022/01/31 07:58:35;;;;;;;10.40;3.22;;;;;;;;;;5013112;28;20527;-74
2022/01/31 08:01:02;;;;;;;15.93;4.35;;;;;;;;;;5021259;28;20567;-76
2022/01/31 08:03:28;;;;;;;18.15;3.28;;;;;;;;;;5017789;28;20054;-77
2022/01/31 08:05:54;;;;;;;21.17;3.38;;;;;;;;;;5001173;28;20964;-68
2022/01/31 08:08:21;;;;;;;8.30;2.40;;;;;;;;;;5000791;28;20049;-76
2022/01/31 08:10:47;;;;;;;12.57;2.75;;;;;;;;;;5018240;28;20570;-78
2022/01/31 08:13:14;;;;;;;12.05;3.53;;;;;;;;;;5020328;28;20326;-76
2022/01/31 08:16:01;;;;;;;11.73;3.58;;;;;;;;;;5016320;28;20045;-78
2022/01/31 08:18:30;;;;;;;22.45;3.45;;;;;;;;;;5016160;28;20041;-80
2022/01/31 08:20:56;;;;;;;14.18;3.47;;;;;;;;;;5018628;28;20072;-83
2022/01/31 08:23:22;;;;;;;20.70;4.53;;;;;;;;;;5016053;28;20442;-73
2022/01/31 08:25:49;;;;;;;16.38;4.07;;;;;;;;;;5016743;28;20532;-79
2022/01/31 08:28:17;;;;;;;10.73;3.72;;;;;;;;;;5000072;28;20060;-75
2022/01/31 08:30:53;;;;;;;16.60;3.67;;;;;;;;;;4997510;28;20557;-79
2022/01/31 08:33:38;;;;;;;13.40;3.92;;;;;;;;;;5016906;28;20064;-78
2022/01/31 08:36:06;;;;;;;14.88;4.50;;;;;;;;;;4998768;28;20067;-77
2022/01/31 08:38:35;;;;;;;19.10;6.10;;;;;;;;;;5014856;28;20154;-79
2022/01/31 08:41:02;;;;;;;15.10;5.65;;;;;;;;;;4986391;28;20057;-77
2022/01/31 08:43:29;;;;;;;18.25;6.68;;;;;;;;;;5001903;28;20588;-76
2022/01/31 08:45:56;;;;;;;14.20;6.57;;;;;;;;;;5002428;28;20048;-70
2022/01/31 08:48:27;;;;;;;21.42;6.68;;;;;;;;;;4980912;28;20073;-79
2022/01/31 08:50:55;;;;;;;20.42;7.03;;;;;;;;;;5017565;28;20102;-78
2022/01/31 08:53:22;;;;;;;16.25;5.97;;;;;;;;;;5021284;28;20103;-77
2022/01/31 08:55:54;;;;;;;20.92;6.63;;;;;;;;;;5016893;28;20069;-77
2022/01/31 08:58:21;;;;;;;24.60;7.03;;;;;;;;;;4997646;28;20057;-81
2022/01/31 09:00:49;;;;;;;15.23;6.63;;;;;;;;;;5017870;28;20944;-72
2022/01/31 09:03:34;;;;;;;19.27;7.20;;;;;;;;;;5020530;28;20061;-78
2022/01/31 09:06:02;;;;;;;29.90;8.27;;;;;;;;;;5016519;28;20057;-74
2022/01/31 09:08:28;;;;;;;19.90;8.38;;;;;;;;;;5011302;28;20111;-73
2022/01/31 09:10:54;;;;;;;25.20;8.57;;;;;;;;;;5015325;28;20061;-69
2022/01/31 09:13:21;;;;;;;21.65;6.75;;;;;;;;;;5009961;28;20099;-75
2022/01/31 09:15:47;;;;;;;23.10;6.70;;;;;;;;;;4996555;28;20111;-75
2022/01/31 09:18:13;;;;;;;15.73;6.20;;;;;;;;;;4995690;28;20131;-78
2022/01/31 09:20:40;;;;;;;16.23;5.78;;;;;;;;;;5014004;28;20121;-76
2022/01/31 09:23:06;;;;;;;20.92;5.57;;;;;;;;;;5016235;28;20168;-69
2022/01/31 09:25:33;;;;;;;12.55;4.07;;;;;;;;;;5019042;28;20049;-74
2022/01/31 09:28:02;;;;;;;12.80;3.88;;;;;;;;;;5001321;28;20057;-73
2022/01/31 09:30:31;;;;;;;12.90;3.60;;;;;;;;;;5011021;28;20064;-70
2022/01/31 09:32:57;;;;;;;11.80;3.58;;;;;;;;;;5015767;28;20057;-77
2022/01/31 09:35:25;;;;;;;6.85;2.75;;;;;;;;;;5017317;28;20172;-68
2022/01/31 09:37:52;;;;;;;9.10;3.10;;;;;;;;;;5017397;28;20041;-77
2022/01/31 09:40:22;;;;;;;6.55;2.60;;;;;;;;;;4993122;28;20126;-78
2022/01/31 09:46:16;;;;;;;8.25;3.10;;;;;;;;;;5004700;28;20068;-73
2022/01/31 09:48:44;;;;;;;12.15;2.42;;;;;;;;;;4992414;28;21030;-76
2022/01/31 09:51:21;;;;;;;12.57;3.28;;;;;;;;;;5015757;28;21184;-75
2022/01/31 09:53:51;;;;;;;7.90;2.33;;;;;;;;;;5016566;28;20061;-79
2022/01/31 09:56:24;;;;;;;10.75;2.85;;;;;;;;;;5000791;28;20068;-80
2022/01/31 09:58:52;;;;;;;10.80;2.88;;;;;;;;;;5012907;28;20320;-70
2022/01/31 10:01:21;;;;;;;7.00;2.70;;;;;;;;;;5015931;28;20045;-82
2022/01/31 10:03:51;;;;;;;8.25;3.28;;;;;;;;;;5019571;28;20128;-70
2022/01/31 10:06:20;;;;;;;11.30;2.97;;;;;;;;;;5021686;28;20402;-73
2022/01/31 10:08:47;;;;;;;10.05;2.97;;;;;;;;;;5012781;28;20259;-81
2022/01/31 10:11:29;;;;;;;9.30;3.20;;;;;;;;;;5004108;28;20140;-82
2022/01/31 10:16:54;;;;;;;8.15;2.33;;;;;;;;;;4997489;28;20046;-67
2022/01/31 10:19:20;;;;;;;5.57;2.50;;;;;;;;;;4992069;28;20990;-71
2022/01/31 10:21:56;;;;;;;6.53;2.72;;;;;;;;;;5019706;28;20464;-79
2022/01/31 10:24:24;;;;;;;10.20;3.00;;;;;;;;;;4999655;28;20064;-79
2022/01/31 10:26:51;;;;;;;16.20;3.10;;;;;;;;;;5021659;28;20084;-79
2022/01/31 10:29:19;;;;;;;7.13;3.20;;;;;;;;;;4998865;28;20427;-73
2022/01/31 10:32:16;;;;;;;8.50;3.35;;;;;;;;;;5000202;28;20171;-74
2022/01/31 10:34:51;;;;;;;11.15;3.38;;;;;;;;;;5016095;28;20053;-73
2022/01/31 10:37:19;;;;;;;;;;;;;;;;;;4984960;28;20056;-79
2022/01/31 10:53:50;;;;;;;9.57;3.00;;;;;;;;;;5015812;28;20057;-73
2022/01/31 10:56:17;;;;;;;8.73;2.53;;;;;;;;;;4998835;28;20416;-77
2022/01/31 10:58:58;;;;;;;4.90;2.45;;;;;;;;;;4997213;28;20506;-81
2022/01/31 11:01:25;;;;;;;7.18;2.00;;;;;;;;;;5000622;28;20045;-75
2022/01/31 11:03:52;;;;;;;5.68;2.00;;;;;;;;;;5020060;28;20136;-74
2022/01/31 11:06:23;;;;;;;3.58;1.83;;;;;;;;;;5001559;28;20049;-78
2022/01/31 11:08:51;;;;;;;4.97;1.98;;;;;;;;;;4998875;28;20114;-73
2022/01/31 11:11:18;;;;;;;3.60;1.90;;;;;;;;;;5017208;28;20499;-78
2022/01/31 11:13:47;;;;;;;6.07;1.88;;;;;;;;;;4982300;28;20065;-75
2022/01/31 11:16:14;;;;;;;5.95;2.13;;;;;;;;;;5013353;28;20046;-77
2022/01/31 11:18:44;;;;;;;5.70;1.92;;;;;;;;;;4999061;28;20450;-75
2022/01/31 11:21:12;;;;;;;4.55;2.05;;;;;;;;;;5015408;28;20057;-74
2022/01/31 11:23:42;;;;;;;5.28;2.38;;;;;;;;;;5019080;28;20144;-67
2022/01/31 11:26:11;;;;;;;6.82;2.40;;;;;;;;;;4999373;28;20690;-77
2022/01/31 11:28:41;;;;;;;5.97;2.42;;;;;;;;;;4999349;28;20651;-79
2022/01/31 11:31:08;;;;;;;4.72;1.88;;;;;;;;;;5016460;28;20053;-73
2022/01/31 11:33:36;;;;;;;3.72;2.10;;;;;;;;;;5019261;28;20061;-79
2022/01/31 11:36:02;;;;;;;4.18;2.00;;;;;;;;;;4998483;28;20493;-76
2022/01/31 11:38:29;;;;;;;6.43;2.08;;;;;;;;;;5014914;28;20186;-66
2022/01/31 11:41:05;;;;;;;9.82;2.38;;;;;;;;;;5000661;28;20057;-66
2022/01/31 11:43:32;;;;;;;7.65;2.00;;;;;;;;;;5016119;28;20838;-66
2022/01/31 11:46:00;;;;;;;9.02;2.58;;;;;;;;;;5018654;28;20053;-69
2022/01/31 11:48:29;;;;;;;5.40;2.17;;;;;;;;;;5018838;28;20061;-81
2022/01/31 11:51:02;;;;;;;3.95;2.40;;;;;;;;;;5018738;28;20045;-71
2022/01/31 11:53:33;;;;;;;5.70;2.20;;;;;;;;;;5016891;28;20448;-68
2022/01/31 11:56:20;;;;;;;6.30;1.80;;;;;;;;;;5000128;28;20508;-70
2022/01/31 11:58:50;;;;;;;6.90;2.20;;;;;;;;;;5000195;28;20053;-74
2022/01/31 12:01:17;;;;;;;6.13;1.98;;;;;;;;;;5002524;28;20057;-74
2022/01/31 12:03:56;;;;;;;3.50;1.63;;;;;;;;;;5000910;28;20053;-74
2022/01/31 12:06:24;;;;;;;11.95;1.98;;;;;;;;;;5018210;28;20044;-73
2022/01/31 12:08:53;;;;;;;3.92;1.63;;;;;;;;;;5014016;28;20140;-74
2022/01/31 12:11:29;;;;;;;3.50;1.98;;;;;;;;;;5018462;28;20126;-80
2022/01/31 12:14:08;;;;;;;9.35;2.00;;;;;;;;;;5017920;28;20042;-79
2022/01/31 12:22:04;;;;;;;10.25;2.40;;;;;;;;;;5003492;28;20053;-79
2022/01/31 12:24:38;;;;;;;7.47;2.40;;;;;;;;;;5023190;28;20117;-69
2022/01/31 12:27:06;;;;;;;6.97;2.00;;;;;;;;;;5000235;28;21247;-78
2022/01/31 12:29:38;;;;;;;5.25;1.85;;;;;;;;;;5001199;28;20065;-82
2022/01/31 12:32:11;;;;;;;11.02;2.20;;;;;;;;;;5008824;28;20037;-69
2022/01/31 12:34:41;;;;;;;12.02;2.10;;;;;;;;;;5024542;28;20068;-73
2022/01/31 12:37:10;;;;;;;7.40;2.05;;;;;;;;;;5029439;28;20068;-74
2022/01/31 12:39:42;;;;;;;6.50;2.42;;;;;;;;;;5022526;28;20846;-67
2022/01/31 12:45:30;;;;;;;5.20;1.90;;;;;;;;;;5010451;28;20426;-69
2022/01/31 12:48:07;;;;;;;4.40;1.83;;;;;;;;;;4999134;28;20069;-71
2022/01/31 12:50:35;;;;;;;4.68;1.83;;;;;;;;;;5016370;28;20046;-74
2022/01/31 12:53:05;;;;;;;6.43;2.10;;;;;;;;;;4998446;28;20061;-67
2022/01/31 12:55:39;;;;;;;10.50;2.30;;;;;;;;;;5000441;28;20061;-68
2022/01/31 12:58:05;;;;;;;8.65;2.53;;;;;;;;;;5002453;28;20608;-67
2022/01/31 13:00:40;;;;;;;9.75;3.17;;;;;;;;;;5016457;28;20061;-73
2022/01/31 13:03:07;;;;;;;5.88;2.65;;;;;;;;;;5018716;28;20604;-78
2022/01/31 13:05:39;;;;;;;16.27;3.50;;;;;;;;;;5017687;28;20530;-68
2022/01/31 13:08:26;;;;;;;10.82;2.30;;;;;;;;;;5020797;28;20167;-77
2022/01/31 13:10:53;;;;;;;7.15;3.05;;;;;;;;;;5016520;28;20072;-80
2022/01/31 13:13:34;;;;;;;8.82;2.42;;;;;;;;;;5018030;28;20053;-81
2022/01/31 13:16:09;;;;;;;12.15;2.40;;;;;;;;;;5001952;28;20128;-78
2022/01/31 13:18:35;;;;;;;8.93;3.03;;;;;;;;;;5016285;28;20053;-77
2022/01/31 13:21:06;;;;;;;10.35;3.40;;;;;;;;;;5017812;28;20531;-74
2022/01/31 13:23:34;;;;;;;10.73;3.28;;;;;;;;;;4999788;28;21369;-78
2022/01/31 13:26:06;;;;;;;8.77;2.80;;;;;;;;;;5000470;28;20829;-69
2022/01/31 13:28:33;;;;;;;6.32;3.25;;;;;;;;;;4998255;28;20069;-79
2022/01/31 13:31:07;;;;;;;8.32;2.65;;;;;;;;;;5002137;28;20053;-70
2022/01/31 13:33:48;;;;;;;5.75;2.67;;;;;;;;;;5016868;28;20139;-75
2022/01/31 13:36:15;;;;;;;7.25;2.58;;;;;;;;;;5020276;28;20148;-76
2022/01/31 13:38:41;;;;;;;6.80;2.60;;;;;;;;;;5014082;28;20343;-78
2022/01/31 13:41:10;;;;;;;6.15;2.40;;;;;;;;;;5019221;28;20052;-77
2022/01/31 13:43:39;;;;;;;3.63;2.42;;;;;;;;;;5040337;28;20068;-80
2022/01/31 13:51:26;;;;;;;11.25;3.45;;;;;;;;;;5019775;28;20076;-78
2022/01/31 13:53:52;;;;;;;5.57;2.55;;;;;;;;;;5017127;28;20489;-71
2022/01/31 13:56:19;;;;;;;6.55;2.67;;;;;;;;;;4997167;28;20053;-83
2022/01/31 13:58:57;;;;;;;8.27;2.90;;;;;;;;;;5012948;28;20091;-73
2022/01/31 14:01:24;;;;;;;6.20;2.83;;;;;;;;;;4998806;28;20099;-69
2022/01/31 14:03:51;;;;;;;8.02;2.88;;;;;;;;;;5013308;28;20128;-82
2022/01/31 14:06:19;;;;;;;15.57;2.67;;;;;;;;;;5011731;28;20683;-75
2022/01/31 14:08:48;;;;;;;7.00;2.50;;;;;;;;;;5015605;28;20159;-78
2022/01/31 14:11:23;;;;;;;10.32;2.30;;;;;;;;;;5016100;28;20045;-78
2022/01/31 14:13:52;;;;;;;5.15;2.33;;;;;;;;;;5009737;28;20056;-72
2022/01/31 14:16:33;;;;;;;7.15;2.20;;;;;;;;;;5015376;28;20071;-75
2022/01/31 14:19:08;;;;;;;7.18;2.22;;;;;;;;;;5012153;28;20080;-68
2022/01/31 14:21:36;;;;;;;6.07;2.10;;;;;;;;;;4995990;28;20053;-75
2022/01/31 14:24:05;;;;;;;6.40;2.17;;;;;;;;;;5015735;28;20049;-77
2022/01/31 14:26:34;;;;;;;5.55;2.13;;;;;;;;;;5016218;28;20592;-76
2022/01/31 14:29:03;;;;;;;5.45;1.85;;;;;;;;;;4991234;28;20944;-79
2022/01/31 14:31:35;;;;;;;6.10;1.83;;;;;;;;;;5019365;28;20324;-69
2022/01/31 14:34:05;;;;;;;3.83;2.17;;;;;;;;;;4999604;28;20111;-73
2022/01/31 14:36:48;;;;;;;5.40;1.85;;;;;;;;;;4983640;28;20460;-79
2022/01/31 14:42:12;;;;;;;5.68;2.10;;;;;;;;;;5002395;28;20048;-74
2022/01/31 14:48:00;;;;;;;4.45;2.05;;;;;;;;;;4999786;28;20080;-69
2022/01/31 14:50:35;;;;;;;3.47;1.90;;;;;;;;;;5012366;28;20127;-82
2022/01/31 14:53:14;;;;;;;9.63;3.08;;;;;;;;;;5022296;28;20913;-73
2022/01/31 14:55:47;;;;;;;4.07;2.30;;;;;;;;;;5018683;28;20484;-74
2022/01/31 14:58:14;;;;;;;5.15;2.38;;;;;;;;;;4998382;28;20079;-80
2022/01/31 15:00:41;;;;;;;5.75;2.40;;;;;;;;;;5017353;28;20102;-74
2022/01/31 15:03:11;;;;;;;7.10;2.33;;;;;;;;;;5017138;28;20178;-70
2022/01/31 15:05:39;;;;;;;4.55;2.03;;;;;;;;;;5016626;28;20078;-82
2022/01/31 15:08:06;;;;;;;5.65;2.35;;;;;;;;;;5017892;28;20052;-77
2022/01/31 15:10:33;;;;;;;6.20;2.58;;;;;;;;;;5011684;28;20691;-72
2022/01/31 15:13:00;;;;;;;5.45;2.60;;;;;;;;;;5012190;28;20048;-73
2022/01/31 15:15:26;;;;;;;5.43;2.10;;;;;;;;;;5016785;28;20049;-72
2022/01/31 15:17:54;;;;;;;5.78;2.50;;;;;;;;;;5000728;28;20525;-78
2022/01/31 15:20:20;;;;;;;6.70;2.78;;;;;;;;;;4998340;28;20061;-69
2022/01/31 15:22:50;;;;;;;10.90;2.42;;;;;;;;;;5016785;28;20049;-81
2022/01/31 15:25:16;;;;;;;5.78;2.20;;;;;;;;;;5002513;28;20072;-82
2022/01/31 15:27:43;;;;;;;7.25;1.92;;;;;;;;;;5000204;28;20597;-81
2022/01/31 15:30:10;;;;;;;7.40;2.03;;;;;;;;;;4997336;28;20195;-77